Time;durP1;ratioP1;P1;durP2;ratioP2;P2;SDS_P1;SDS_P2;PMS_P1;PMS_P2;Temp;Humidity;BMP_temperature;BMP_pressure;BME280_temperature;BME280_humidity;BME280_pressure;Samples;Min_cycle;Max_cycle;Signal;HPM_P1;HPM_P2
2021/01/02 00:18:44;;;;;;;;;;;1.60;99.90;;;0.56;83.81;94997.78;10272994;28;1890;-81
2021/01/02 00:24:32;;;;;;;;;;;1.50;99.90;;;0.64;83.40;94997.47;10447913;28;1925;-81
2021/01/02 00:30:32;;;;;;;;;;;3.10;99.90;;;0.54;83.63;94979.53;10311475;28;2217;-81
2021/01/02 00:35:58;;;;;;;;;;;1.50;99.90;;;0.48;83.83;94991.03;10334181;28;2079;-82
2021/01/02 01:23:20;;;;;;;;;;;;;;;;;;;;;
2021/01/02 01:34:59;;;;;;;;;;;2.60;99.90;;;0.42;85.28;95015.72;10344555;28;2017;-81
2021/01/02 01:40:38;;;;;;;;;;;;;;;;;;;;;
2021/01/02 01:45:51;;;;;;;;;;;2.10;99.90;;;0.45;85.34;95031.97;10377866;28;1931;-82
2021/01/02 02:14:04;;;;;;;;;;;1.50;99.90;;;0.54;85.68;95027.94;10295653;28;2062;-81
2021/01/02 02:25:08;;;;;;;;;;;1.80;99.90;;;0.50;86.24;95016.19;10422389;28;1817;-82
2021/01/02 02:30:31;;;;;;;;;;;1.50;99.90;;;0.47;86.31;95021.94;10447206;28;2023;-82
2021/01/02 02:35:53;;;;;;;;;;;1.50;99.90;;;0.50;85.90;95016.19;10430696;28;2015;-82
2021/01/02 02:41:16;;;;;;;;;;;2.40;99.90;;;0.46;86.18;95015.06;10446998;28;2113;-81
2021/01/02 02:46:59;;;;;;;;;;;1.30;99.90;;;0.48;85.45;95010.31;10457458;28;1815;-81
2021/01/02 02:58:43;;;;;;;;;;;2.50;99.90;;;0.50;85.51;95000.31;10352463;28;2119;-82
2021/01/02 03:10:00;;;;;;;;;;;2.20;99.90;;;0.42;84.82;95000.66;10156732;29;2151;-82
2021/01/02 03:15:54;;;;;;;;;;;1.40;99.90;;;0.51;84.64;94999.31;10229839;28;1963;-81
2021/01/02 03:21:40;;;;;;;;;;;1.50;99.90;;;0.64;83.90;95000.91;10240560;28;2249;-82
2021/01/02 03:27:12;;;;;;;;;;;2.90;99.90;;;0.54;83.55;95014.69;10204300;28;2296;-82
2021/01/02 03:32:32;;;;;;;;;;;1.60;99.90;;;0.50;83.16;95020.66;10291273;28;2144;-81
2021/01/02 03:38:09;;;;;;;;;;;2.20;99.90;;;0.46;83.34;95019.53;10494146;23;2141;-81
2021/01/02 03:54:17;;;;;;;;;;;1.40;99.90;;;0.56;82.76;95014.47;10325783;28;2265;-81
2021/01/02 04:16:49;;;;;;;;;;;1.50;99.90;;;0.38;81.49;94988.13;10448649;28;2170;-80
2021/01/02 04:22:43;;;;;;;;;;;1.40;99.90;;;0.13;82.35;94996.28;10465373;28;2075;-79
2021/01/02 04:46:21;;;;;;;;;;;2.50;99.90;;;-0.60;85.56;95003.38;10288621;28;2083;-80
2021/01/02 04:57:25;;;;;;;;;;;0.50;99.90;;;-0.68;85.96;95008.97;10201129;28;2246;-80
2021/01/02 05:08:47;;;;;;;;;;;1.40;99.90;;;-0.82;86.93;94997.78;10279590;28;2025;-80
2021/01/02 05:14:27;;;;;;;;;;;2.00;99.90;;;-0.79;87.45;95007.06;10296070;28;2075;-83
2021/01/02 05:20:33;;;;;;;;;;;;;;;;;;;;;
2021/01/02 05:26:16;;;;;;;;;;;0.40;99.90;;;-0.57;86.47;95024.06;10366251;28;1668;-80
2021/01/02 06:06:10;;;;;;;;;;;1.70;99.90;;;-0.43;84.01;95021.25;10279427;28;2285;-79
2021/01/02 06:22:35;;;;;;;;;;;1.30;99.90;;;-0.46;83.93;95048.91;10314575;28;2058;-80
2021/01/02 06:28:19;;;;;;;;;;;1.20;99.90;;;-0.47;84.15;95039.38;10356667;28;2034;-82
2021/01/02 06:34:08;;;;;;;;;;;2.90;99.90;;;-0.63;84.45;95040.00;10312915;28;2050;-82
2021/01/02 06:39:27;;;;;;;;;;;0.40;99.90;;;-0.47;84.34;95030.66;10312897;28;2072;-79
2021/01/02 06:55:58;;;;;;;;;;;0.40;99.90;;;-0.51;84.62;95034.75;10208655;28;1567;-82
2021/01/02 07:01:50;;;;;;;;;;;1.60;99.90;;;-0.64;85.04;95036.53;10114237;29;2082;-81
2021/01/02 07:31:15;;;;;;;;;;;2.00;99.90;;;-0.76;84.85;95037.47;10250096;28;2248;-80
2021/01/02 07:42:59;;;;;;;;;;;0.40;99.90;;;-0.75;85.26;95018.00;10215296;29;2206;-83
2021/01/02 08:00:53;;;;;;;;;;;1.40;99.90;;;-0.41;83.79;95029.75;10442630;28;2078;-80
2021/01/02 08:06:35;;;;;;;;;;;1.70;99.90;;;-0.31;83.61;95040.59;10451635;28;2227;-80
2021/01/02 08:48:58;;;;;;;;;;;0.70;99.90;;;-0.25;82.92;95045.00;10273098;28;2045;-81
2021/01/02 09:05:36;;;;;;;;;;;2.00;99.90;;;-0.09;83.03;95040.91;10510957;28;1994;-81
2021/01/02 09:10:48;;;;;;;;;;;1.50;99.90;;;-0.23;82.91;95064.06;10517777;28;2052;-81
2021/01/02 09:15:52;;;;;;;;;;;0.90;99.90;;;-0.17;82.30;95057.88;10532069;28;1986;-81
2021/01/02 09:20:54;;;;;;;;;;;0.90;99.90;;;-0.01;81.37;95051.94;10507955;28;1925;-82
2021/01/02 09:26:00;;;;;;;;;;;2.40;99.90;;;0.19;81.13;95056.13;10505333;28;1896;-81
2021/01/02 09:31:09;;;;;;;;;;;2.30;99.90;;;0.08;80.92;95064.84;10508837;28;2142;-82
2021/01/02 09:36:11;;;;;;;;;;;2.10;99.90;;;-0.06;80.17;95072.97;10509392;28;2098;-82
2021/01/02 09:41:45;;;;;;;;;;;2.20;99.90;;;-0.08;81.03;95075.00;10503509;28;2089;-80
2021/01/02 09:46:53;;;;;;;;;;;2.10;99.90;;;0.10;80.06;95068.88;10486703;28;1884;-81
2021/01/02 09:51:57;;;;;;;;;;;2.80;99.90;;;-0.11;79.53;95078.13;10505415;28;1973;-80
2021/01/02 09:57:03;;;;;;;;;;;2.00;99.90;;;0.03;78.62;95067.38;10496982;28;1569;-82
2021/01/02 10:02:37;;;;;;;;;;;3.20;99.90;;;0.12;78.01;95079.22;10512485;28;2028;-80
2021/01/02 10:07:38;;;;;;;;;;;1.00;99.90;;;-0.05;78.61;95076.41;10511389;28;1863;-80
2021/01/02 10:12:40;;;;;;;;;;;1.00;99.90;;;0.17;78.39;95077.50;10487928;28;2100;-81
2021/01/02 10:17:42;;;;;;;;;;;1.20;99.90;;;0.28;77.44;95059.28;10492560;28;1962;-82
2021/01/02 10:22:43;;;;;;;;;;;1.20;99.90;;;0.14;77.90;95053.38;10495921;28;1933;-81
2021/01/02 10:27:45;;;;;;;;;;;1.30;99.90;;;0.23;77.54;95044.09;10515740;28;2057;-79
2021/01/02 10:32:47;;;;;;;;;;;1.20;99.90;;;0.10;78.23;95026.59;10520472;28;2029;-81
2021/01/02 10:37:53;;;;;;;;;;;1.40;99.90;;;0.20;77.52;95036.63;10508203;28;2167;-81
2021/01/02 10:42:55;;;;;;;;;;;1.10;99.90;;;0.19;76.92;95030.53;10500814;28;2086;-83
2021/01/02 10:47:57;;;;;;;;;;;1.10;99.90;;;0.08;78.29;95033.94;10504595;28;2035;-83
2021/01/02 10:52:59;;;;;;;;;;;1.10;99.90;;;0.03;78.44;95030.38;10511576;28;2057;-81
2021/01/02 10:58:01;;;;;;;;;;;1.70;99.90;;;-0.03;78.10;94998.53;10490945;28;1975;-80
2021/01/02 11:03:03;;;;;;;;;;;1.70;99.90;;;-0.16;79.55;95006.66;10490504;28;2100;-81
2021/01/02 11:08:05;;;;;;;;;;;0.90;99.90;;;-0.23;80.19;94999.84;10490082;28;2049;-80
2021/01/02 11:13:07;;;;;;;;;;;0.80;99.90;;;-0.01;78.98;94996.47;10506808;28;1898;-82
2021/01/02 11:18:09;;;;;;;;;;;0.90;99.90;;;-0.01;79.26;94995.66;10492277;28;2108;-82
2021/01/02 11:23:10;;;;;;;;;;;1.00;99.90;;;-0.03;77.89;94993.25;10506287;28;1839;-79
2021/01/02 11:28:12;;;;;;;;;;;1.00;99.90;;;-0.09;78.66;94994.16;10505813;28;2100;-80
2021/01/02 11:33:14;;;;;;;;;;;0.90;99.90;;;-0.36;80.54;94990.28;10503395;28;2085;-80
2021/01/02 11:38:16;;;;;;;;;;;0.80;99.90;;;-0.27;80.35;94988.94;10512164;28;1672;-80
2021/01/02 11:43:18;;;;;;;;;;;0.70;99.90;;;-0.32;80.21;94975.59;10489107;28;2034;-80
2021/01/02 11:48:19;;;;;;;;;;;0.80;99.90;;;-0.38;80.75;94971.19;10486362;28;1938;-81
2021/01/02 11:53:21;;;;;;;;;;;0.70;99.90;;;-0.20;80.34;94963.22;10506646;28;2148;-82
2021/01/02 11:58:23;;;;;;;;;;;0.80;99.90;;;-0.16;80.25;94964.38;10501430;28;1999;-82
2021/01/02 12:03:25;;;;;;;;;;;0.90;99.90;;;-0.47;81.66;94967.28;10485683;28;2140;-80
2021/01/02 12:08:27;;;;;;;;;;;0.80;99.90;;;-0.52;81.05;94960.03;10505539;28;2098;-83
2021/01/02 12:13:28;;;;;;;;;;;0.60;99.90;;;-0.68;81.73;94942.19;10493734;28;1899;-77
2021/01/02 12:18:30;;;;;;;;;;;0.40;99.90;;;-0.58;81.86;94939.81;10507009;28;2066;-80
2021/01/02 12:23:32;;;;;;;;;;;1.20;99.90;;;-0.45;80.71;94950.16;10475347;28;1991;-80
2021/01/02 12:28:34;;;;;;;;;;;0.50;99.90;;;-0.55;81.23;94929.59;10506933;28;1866;-81
2021/01/02 12:33:37;;;;;;;;;;;0.50;99.90;;;-0.67;81.46;94931.41;10505084;28;1962;-80
2021/01/02 12:38:50;;;;;;;;;;;1.70;99.90;;;-0.71;82.03;94947.91;10520350;28;2012;-80
2021/01/02 12:43:55;;;;;;;;;;;0.40;99.90;;;-0.91;82.73;94934.97;10509547;28;2123;-80
2021/01/02 12:49:00;;;;;;;;;;;1.80;99.90;;;-1.16;84.49;94920.03;10527863;28;2070;-80
2021/01/02 12:54:04;;;;;;;;;;;0.00;99.90;;;-1.03;84.34;94927.00;10527260;28;2060;-82
2021/01/02 12:59:12;;;;;;;;;;;0.00;99.90;;;-1.02;83.59;94941.78;10548433;28;1443;-80
2021/01/02 13:04:15;;;;;;;;;;;2.10;99.90;;;-1.56;85.91;94924.16;10565986;28;1469;-81
2021/01/02 13:09:20;;;;;;;;;;;1.10;99.90;;;-1.60;86.88;94928.25;10522040;28;1228;-84
2021/01/02 13:14:25;;;;;;;;;;;-0.50;99.90;;;-1.61;86.88;94939.81;10512359;28;1902;-82
2021/01/02 13:19:27;;;;;;;;;;;-0.60;99.90;;;-1.59;86.79;94937.75;10529398;28;1621;-84
2021/01/02 13:24:36;;;;;;;;;;;-0.60;99.90;;;-1.81;87.99;94938.19;10514971;28;1655;-84
2021/01/02 13:29:38;;;;;;;;;;;-0.60;99.90;;;-1.78;87.45;94943.03;10518086;28;1913;-84
2021/01/02 13:34:40;;;;;;;;;;;-0.40;99.90;;;-2.06;88.53;94932.94;10515595;28;1509;-83
2021/01/02 13:39:42;;;;;;;;;;;0.10;99.90;;;-2.00;88.53;94947.06;10525794;28;1247;-83
2021/01/02 13:50:52;;;;;;;;;;;-1.10;99.90;;;-2.35;89.60;94915.97;10341507;28;1965;-84
2021/01/02 15:08:22;;;;;;;;;;;-1.70;99.90;;;-2.56;88.36;94921.56;10172724;29;1485;-82
2021/01/02 15:48:16;;;;;;;;;;;-1.70;99.90;;;-2.75;88.05;94912.78;10419254;28;2009;-81
2021/01/02 17:10:51;;;;;;;;;;;-1.10;99.90;;;-2.66;89.82;94918.59;10052409;29;1911;-82
2021/01/02 17:16:25;;;;;;;;;;;-1.80;99.90;;;-2.91;90.65;94919.34;10345405;28;2110;-82
2021/01/02 17:52:42;;;;;;;;;;;;;;;;;;;;;
2021/01/02 17:58:25;;;;;;;;;;;-2.00;99.90;;;-3.03;91.12;94887.66;10001411;29;2114;-82
2021/01/02 18:22:12;;;;;;;;;;;-2.20;99.90;;;-2.92;90.83;94895.91;10440373;28;2173;-84
2021/01/02 18:39:50;;;;;;;;;;;-1.80;99.90;;;-3.03;91.05;94884.22;10389635;28;2013;-81
2021/01/02 18:57:37;;;;;;;;;;;;;;;;;;;;;
2021/01/02 19:03:20;;;;;;;;;;;-2.10;99.90;;;-2.91;88.50;94872.03;10411064;28;1860;-83
2021/01/02 19:08:54;;;;;;;;;;;-1.70;99.90;;;-2.91;88.87;94855.44;10408834;28;2026;-80
2021/01/02 19:14:22;;;;;;;;;;;-1.80;99.90;;;-2.98;89.72;94860.75;10390790;28;2226;-81
2021/01/02 19:20:01;;;;;;;;;;;-1.50;99.90;;;-3.07;89.73;94851.47;10397699;28;1987;-82
2021/01/02 19:25:29;;;;;;;;;;;-1.60;99.90;;;-3.09;89.71;94848.25;10378360;28;2083;-83
2021/01/02 19:31:41;;;;;;;;;;;-2.10;99.90;;;-2.88;89.12;94853.16;10389060;28;1975;-83
2021/01/02 19:49:00;;;;;;;;;;;-1.80;99.90;;;-2.73;88.98;94863.41;10479960;28;2150;-82
2021/01/02 19:54:48;;;;;;;;;;;;;;;;;;;;;
2021/01/02 20:41:21;;;;;;;;;;;-1.50;99.90;;;-2.41;87.79;94850.22;10167552;28;1617;-82
2021/01/02 21:04:09;;;;;;;;;;;-1.10;99.90;;;-2.55;86.89;94834.50;10424254;28;1438;-84
2021/01/02 21:10:11;;;;;;;;;;;;;;;;;;;;;
2021/01/02 21:15:20;;;;;;;;;;;-1.50;99.90;;;-2.43;87.25;94831.97;10428973;28;1521;-82
2021/01/02 21:44:19;;;;;;;;;;;-1.20;99.90;;;-2.33;86.74;94823.63;10673575;22;2000;-84
2021/01/02 21:49:47;;;;;;;;;;;-1.30;99.90;;;-2.40;87.61;94821.03;10439412;28;2040;-83
2021/01/02 21:54:59;;;;;;;;;;;-1.50;99.90;;;-2.36;88.04;94810.88;10458516;28;2157;-82
2021/01/02 22:00:01;;;;;;;;;;;-1.20;99.90;;;-2.37;87.47;94815.31;10474455;28;2163;-82
2021/01/02 22:05:04;;;;;;;;;;;-0.80;99.90;;;-2.22;88.24;94812.38;10468691;28;2237;-82
2021/01/02 22:10:11;;;;;;;;;;;-1.30;99.90;;;-2.06;88.45;94811.78;10472191;28;2480;-83
2021/01/02 22:15:13;;;;;;;;;;;-1.20;99.90;;;-2.06;87.91;94805.72;10459650;28;2519;-82
2021/01/02 22:20:20;;;;;;;;;;;-0.20;99.90;;;-2.08;87.42;94810.41;10483440;28;2359;-82
2021/01/02 22:25:32;;;;;;;;;;;-0.50;99.90;;;-2.12;87.21;94815.28;10480259;28;2093;-83
2021/01/02 22:30:41;;;;;;;;;;;-0.80;99.90;;;-2.14;88.29;94814.72;10475503;28;2121;-82
2021/01/02 22:35:43;;;;;;;;;;;-0.90;99.90;;;-2.03;88.36;94800.84;10492465;28;2180;-82
2021/01/02 22:40:45;;;;;;;;;;;-0.40;99.90;;;-1.90;87.84;94805.16;10487806;28;2137;-84
2021/01/02 22:45:47;;;;;;;;;;;-1.00;99.90;;;-1.93;87.14;94816.91;10498727;28;2357;-82
2021/01/02 22:50:49;;;;;;;;;;;-1.10;99.90;;;-1.91;87.17;94814.06;10467363;28;2172;-82
2021/01/02 22:55:54;;;;;;;;;;;-1.00;99.90;;;-1.77;87.39;94814.75;10486134;28;2164;-83
2021/01/02 23:01:01;;;;;;;;;;;0.70;99.90;;;-1.71;86.33;94814.66;10490010;28;2096;-81
2021/01/02 23:06:06;;;;;;;;;;;1.20;99.90;;;-1.60;85.97;94820.19;10488140;28;2238;-82
2021/01/02 23:11:09;;;;;;;;;;;0.00;99.90;;;-1.60;85.52;94807.03;10486472;28;2060;-82
2021/01/02 23:16:12;;;;;;;;;;;-0.40;99.90;;;-1.63;84.76;94806.44;10479227;28;1501;-83
2021/01/02 23:21:26;;;;;;;;;;;0.80;99.90;;;-1.69;85.21;94804.69;10510001;28;1947;-83
2021/01/02 23:26:28;;;;;;;;;;;0.30;99.90;;;-1.65;84.85;94803.25;10496053;28;2046;-82
2021/01/02 23:31:34;;;;;;;;;;;-0.70;99.90;;;-1.67;84.30;94802.63;10485874;28;2479;-80
2021/01/02 23:36:45;;;;;;;;;;;0.60;99.90;;;-1.61;84.28;94792.25;10482929;28;2159;-85
2021/01/02 23:41:57;;;;;;;;;;;0.30;99.90;;;-1.68;85.12;94787.84;10495456;28;1938;-82
2021/01/02 23:46:59;;;;;;;;;;;0.50;99.90;;;-1.71;85.49;94777.78;10538497;28;2113;-83
2021/01/02 23:52:02;;;;;;;;;;;0.50;99.90;;;-1.71;84.79;94775.13;10498870;28;2261;-84
2021/01/02 23:57:05;;;;;;;;;;;-0.80;99.90;;;-1.74;84.80;94778.19;10520789;28;2027;-83
